Time;durP1;ratioP1;P1;durP2;ratioP2;P2;SDS_P1;SDS_P2;PMS_P1;PMS_P2;Temp;Humidity;BMP_temperature;BMP_pressure;BME280_temperature;BME280_humidity;BME280_pressure;Samples;Min_cycle;Max_cycle;Signal;HPM_P1;HPM_P2
2021/09/10 00:00:13;;;;;;;15.50;10.07;;;;;;;17.06;100.00;95849.50;1024703;28;20373;-74
2021/09/10 00:00:43;;;;;;;14.23;10.65;;;;;;;17.08;100.00;95852.66;1028660;28;20023;-73
2021/09/10 00:01:14;;;;;;;14.03;9.93;;;;;;;17.07;100.00;95851.88;1028354;28;20556;-73
2021/09/10 00:01:44;;;;;;;12.40;9.93;;;;;;;17.08;100.00;95842.66;1028314;28;20334;-73
2021/09/10 00:02:15;;;;;;;18.97;10.70;;;;;;;17.08;100.00;95845.34;1032315;28;20443;-73
2021/09/10 00:02:45;;;;;;;15.23;10.90;;;;;;;17.09;100.00;95846.16;1036330;28;20030;-74
2021/09/10 00:03:16;;;;;;;15.37;11.07;;;;;;;17.06;100.00;95847.59;1032228;28;20464;-72
2021/09/10 00:03:46;;;;;;;14.37;11.00;;;;;;;17.05;100.00;95848.69;1036237;28;20030;-73
2021/09/10 00:04:17;;;;;;;14.00;10.67;;;;;;;17.03;100.00;95853.59;1032252;28;20034;-73
2021/09/10 00:04:47;;;;;;;13.03;10.40;;;;;;;17.04;100.00;95846.28;1032312;28;20472;-73
2021/09/10 00:05:17;;;;;;;12.60;10.60;;;;;;;17.05;100.00;95847.91;1040314;28;20434;-74
2021/09/10 00:05:48;;;;;;;14.93;10.80;;;;;;;17.04;100.00;95849.78;1040391;28;20071;-73
2021/09/10 00:06:18;;;;;;;14.13;10.60;;;;;;;17.06;100.00;95849.50;1040363;28;20040;-73
2021/09/10 00:06:50;;;;;;;17.17;11.03;;;;;;;17.05;100.00;95848.69;1040279;28;20119;-73
2021/09/10 00:07:20;;;;;;;14.23;10.90;;;;;;;17.04;100.00;95846.28;1036205;28;20391;-73
2021/09/10 00:07:50;;;;;;;15.90;11.17;;;;;;;17.05;100.00;95847.91;1036325;28;20052;-72
2021/09/10 00:08:21;;;;;;;15.00;11.10;;;;;;;17.06;100.00;95852.97;1040339;28;20423;-74
2021/09/10 00:08:51;;;;;;;13.93;11.10;;;;;;;17.03;100.00;95859.00;1040326;28;20410;-72
2021/09/10 00:09:22;;;;;;;13.10;10.73;;;;;;;17.04;100.00;95852.47;1040597;28;20477;-72
2021/09/10 00:09:52;;;;;;;13.73;11.77;;;;;;;16.95;100.00;95857.09;1040678;28;20013;-73
2021/09/10 00:10:22;;;;;;;14.10;10.77;;;;;;;16.95;100.00;95859.00;1040542;28;20508;-73
2021/09/10 00:10:53;;;;;;;12.87;10.87;;;;;;;16.90;100.00;95849.13;1044494;28;20462;-73
2021/09/10 00:11:24;;;;;;;13.90;11.10;;;;;;;16.89;100.00;95850.25;1040300;28;20493;-72
2021/09/10 00:11:54;;;;;;;12.43;10.70;;;;;;;16.89;100.00;95850.25;1032185;28;20377;-73
2021/09/10 00:12:25;;;;;;;15.13;11.10;;;;;;;16.88;100.00;95849.44;1028128;28;20030;-73
2021/09/10 00:12:55;;;;;;;15.97;11.53;;;;;;;16.83;100.00;95852.28;1028293;28;20026;-73
2021/09/10 00:13:25;;;;;;;13.23;11.37;;;;;;;16.83;100.00;95857.66;1028272;28;20022;-72
2021/09/10 00:13:56;;;;;;;12.97;10.77;;;;;;;16.85;100.00;95857.38;1024202;28;20055;-73
2021/09/10 00:14:26;;;;;;;16.17;10.90;;;;;;;16.84;100.00;95847.69;1028180;28;20082;-73
2021/09/10 00:14:57;;;;;;;13.83;10.70;;;;;;;16.86;100.00;95853.56;1028292;28;20091;-73
2021/09/10 00:15:27;;;;;;;12.87;10.90;;;;;;;16.86;100.00;95848.97;1028312;28;20023;-73
2021/09/10 00:15:58;;;;;;;12.93;11.00;;;;;;;16.86;100.00;95857.06;1032093;28;20102;-73
2021/09/10 00:16:28;;;;;;;15.20;11.07;;;;;;;16.88;100.00;95854.81;1024040;28;20035;-73
2021/09/10 00:16:59;;;;;;;13.53;10.30;;;;;;;16.89;100.00;95853.75;1024226;28;20082;-73
2021/09/10 00:17:29;;;;;;;16.90;11.07;;;;;;;16.90;100.00;95849.13;1024157;29;20091;-73
2021/09/10 00:18:00;;;;;;;14.30;10.80;;;;;;;16.85;100.00;95857.38;1032055;28;20053;-73
2021/09/10 00:18:30;;;;;;;12.60;11.07;;;;;;;16.84;100.00;95845.00;1032045;28;20478;-73
2021/09/10 00:19:01;;;;;;;15.17;11.23;;;;;;;16.83;100.00;95852.28;1032232;28;20027;-73
2021/09/10 00:19:31;;;;;;;13.03;10.60;;;;;;;16.82;100.00;95848.00;1032272;28;20041;-72
2021/09/10 00:20:02;;;;;;;13.33;10.20;;;;;;;16.83;100.00;95854.19;1036023;28;20041;-72
2021/09/10 00:20:32;;;;;;;13.87;11.23;;;;;;;16.82;100.00;95858.78;1044181;28;20483;-72
2021/09/10 00:21:02;;;;;;;14.60;10.30;;;;;;;16.79;100.00;95845.94;1044198;28;20025;-73
2021/09/10 00:21:33;;;;;;;12.57;11.27;;;;;;;16.81;100.00;95851.00;1048581;28;20024;-73
2021/09/10 00:22:03;;;;;;;14.60;11.03;;;;;;;16.79;100.00;95850.53;1044325;28;20021;-72
2021/09/10 00:22:34;;;;;;;14.60;11.43;;;;;;;16.78;100.00;95860.50;1040176;28;20141;-72
2021/09/10 00:23:04;;;;;;;14.13;11.23;;;;;;;16.78;100.00;95857.81;1031683;28;20023;-72
2021/09/10 00:23:35;;;;;;;13.37;11.47;;;;;;;16.80;100.00;95858.31;1031909;28;20073;-73
2021/09/10 00:24:05;;;;;;;16.20;11.27;;;;;;;16.82;100.00;95858.00;1030906;28;20010;-73
2021/09/10 00:24:36;;;;;;;15.30;11.23;;;;;;;16.80;100.00;95866.41;1036199;28;20046;-72
2021/09/10 00:25:07;;;;;;;12.70;10.55;;;;;;;16.81;100.00;95859.91;1040171;28;20049;-73
2021/09/10 00:25:38;;;;;;;15.63;11.00;;;;;;;16.80;100.00;95854.81;1040077;28;20018;-73
2021/09/10 00:26:08;;;;;;;13.40;11.10;;;;;;;16.77;100.00;95858.13;1044217;28;20252;-73
2021/09/10 00:26:38;;;;;;;12.87;11.00;;;;;;;16.73;100.00;95854.47;1040447;28;20021;-72
2021/09/10 00:27:09;;;;;;;17.30;10.87;;;;;;;16.73;100.00;95859.84;1044346;28;20060;-72
2021/09/10 00:27:39;;;;;;;13.73;10.33;;;;;;;16.76;100.00;95857.34;1040198;28;20021;-73
2021/09/10 00:28:10;;;;;;;15.33;10.70;;;;;;;16.76;100.00;95851.16;1032062;28;20228;-74
2021/09/10 00:28:40;;;;;;;13.97;11.70;;;;;;;16.78;100.00;95854.31;1036156;28;20045;-73
2021/09/10 00:29:11;;;;;;;14.37;10.83;;;;;;;16.75;100.00;95855.75;1033124;28;20073;-73
2021/09/10 00:29:41;;;;;;;18.40;11.53;;;;;;;16.73;100.00;95857.94;1036228;28;20026;-72
2021/09/10 00:30:12;;;;;;;14.33;10.63;;;;;;;16.72;100.00;95853.66;1036055;28;20010;-72
2021/09/10 00:30:42;;;;;;;16.87;11.63;;;;;;;16.74;100.00;95856.88;1032160;28;20019;-73
2021/09/10 00:31:12;;;;;;;19.73;10.80;;;;;;;16.75;100.00;95854.97;1036266;28;20022;-72
2021/09/10 00:31:43;;;;;;;12.67;10.67;;;;;;;16.77;100.00;95853.53;1040325;28;20021;-72
2021/09/10 00:32:13;;;;;;;15.00;11.37;;;;;;;16.76;100.00;95859.25;1044340;28;20314;-72
2021/09/10 00:32:44;;;;;;;13.13;11.47;;;;;;;16.78;100.00;95843.53;1039432;28;20025;-72
2021/09/10 00:33:14;;;;;;;16.13;10.97;;;;;;;16.78;100.00;95848.91;1035885;28;20014;-73
2021/09/10 00:33:44;;;;;;;16.70;10.47;;;;;;;16.77;100.00;95841.94;1032183;28;20031;-72
2021/09/10 00:34:15;;;;;;;17.30;11.33;;;;;;;16.75;100.00;95852.25;1036065;28;20053;-72
2021/09/10 00:34:45;;;;;;;16.13;11.67;;;;;;;16.73;100.00;95847.16;1031894;28;20018;-73
2021/09/10 00:35:16;;;;;;;14.53;11.27;;;;;;;16.71;100.00;95849.38;1036230;28;20098;-72
2021/09/10 00:35:46;;;;;;;15.37;11.03;;;;;;;16.63;100.00;95848.22;1039956;28;20021;-73
2021/09/10 00:36:17;;;;;;;14.73;11.43;;;;;;;16.62;100.00;95841.22;1036231;28;20010;-72
2021/09/10 00:36:47;;;;;;;17.17;11.70;;;;;;;16.67;100.00;95842.97;1044332;28;20032;-73
2021/09/10 00:37:18;;;;;;;13.70;10.87;;;;;;;16.69;100.00;95850.78;1044266;28;20069;-72
2021/09/10 00:37:48;;;;;;;13.93;11.30;;;;;;;16.67;100.00;95840.28;1040301;28;20034;-72
2021/09/10 00:38:19;;;;;;;15.97;11.77;;;;;;;16.69;100.00;95850.78;1035843;28;20069;-72
2021/09/10 00:38:49;;;;;;;14.00;10.57;;;;;;;16.70;100.00;95846.97;1031933;28;20034;-72
2021/09/10 00:39:21;;;;;;;17.70;11.20;;;;;;;16.60;100.00;95843.44;1032094;28;20033;-72
2021/09/10 00:39:52;;;;;;;18.20;11.82;;;;;;;16.57;100.00;95845.97;1032621;28;20519;-73
2021/09/10 00:40:22;;;;;;;15.50;11.63;;;;;;;16.45;100.00;95848.47;1040489;28;20037;-73
2021/09/10 00:40:53;;;;;;;14.13;11.57;;;;;;;16.38;100.00;95843.53;1044120;28;20064;-72
2021/09/10 00:41:23;;;;;;;15.43;12.27;;;;;;;16.29;100.00;95845.38;1032059;28;20037;-72
2021/09/10 00:41:53;;;;;;;16.43;11.67;;;;;;;16.24;100.00;95849.00;1032110;28;20049;-72
2021/09/10 00:42:24;;;;;;;14.20;11.27;;;;;;;16.22;100.00;95848.50;1027924;28;20018;-72
2021/09/10 00:42:54;;;;;;;16.77;11.57;;;;;;;16.27;100.00;95847.56;1024060;28;20030;-72
2021/09/10 00:43:25;;;;;;;17.50;12.50;;;;;;;16.30;100.00;95850.44;1032067;28;20019;-72
2021/09/10 00:43:55;;;;;;;15.33;11.63;;;;;;;16.36;100.00;95853.81;1032221;28;20018;-72
2021/09/10 00:44:26;;;;;;;14.83;11.43;;;;;;;16.38;100.00;95851.59;1032133;28;20080;-72
2021/09/10 00:44:56;;;;;;;16.13;11.23;;;;;;;16.41;100.00;95842.88;1040153;28;20020;-72
2021/09/10 00:45:27;;;;;;;14.23;11.10;;;;;;;16.46;100.00;95847.34;1032021;28;20029;-72
2021/09/10 00:45:58;;;;;;;13.03;11.17;;;;;;;16.47;100.00;95847.03;1032331;28;20266;-73
2021/09/10 00:46:29;;;;;;;14.20;11.47;;;;;;;16.49;100.00;95852.13;1040188;28;20111;-72
2021/09/10 00:47:00;;;;;;;14.85;11.57;;;;;;;16.49;100.00;95846.75;1040161;28;20020;-73
2021/09/10 00:47:30;;;;;;;15.40;11.00;;;;;;;16.50;100.00;95848.31;1036330;28;20041;-73
2021/09/10 00:48:00;;;;;;;13.73;11.13;;;;;;;16.51;100.00;95856.09;1031950;28;20022;-72
2021/09/10 00:48:31;;;;;;;15.63;11.27;;;;;;;16.52;100.00;95846.09;1027988;28;20026;-73
2021/09/10 00:49:01;;;;;;;13.50;10.83;;;;;;;16.55;100.00;95846.28;1031674;28;20015;-72
2021/09/10 00:49:32;;;;;;;18.00;11.50;;;;;;;16.55;100.00;95846.28;1028006;28;20030;-73
2021/09/10 00:50:03;;;;;;;17.40;11.20;;;;;;;16.53;100.00;95843.13;1027898;28;20018;-72
2021/09/10 00:50:33;;;;;;;13.48;11.02;;;;;;;16.56;100.00;95847.88;1028148;28;20023;-72
2021/09/10 00:51:04;;;;;;;13.80;11.20;;;;;;;16.56;100.00;95842.47;1032222;28;20030;-72
2021/09/10 00:51:34;;;;;;;15.83;11.70;;;;;;;16.58;100.00;95842.16;1036087;28;20438;-73
2021/09/10 00:52:05;;;;;;;19.67;11.30;;;;;;;16.60;100.00;95846.16;1036181;28;20486;-72
2021/09/10 00:52:35;;;;;;;14.93;11.00;;;;;;;16.61;100.00;95836.16;1040135;28;20364;-73
2021/09/10 00:53:05;;;;;;;14.20;11.57;;;;;;;16.60;100.00;95854.25;1039860;28;20013;-72
2021/09/10 00:53:36;;;;;;;14.43;11.23;;;;;;;16.60;100.00;95848.03;1044211;28;20029;-72
2021/09/10 00:54:06;;;;;;;16.40;12.10;;;;;;;16.56;100.00;95845.16;1044325;28;20450;-72
2021/09/10 00:54:37;;;;;;;14.27;11.60;;;;;;;16.55;100.00;95843.59;1044291;28;20087;-72
2021/09/10 00:55:08;;;;;;;17.83;11.97;;;;;;;16.57;100.00;95849.44;1044507;28;20012;-72
2021/09/10 00:55:38;;;;;;;14.03;11.27;;;;;;;16.57;100.00;95844.06;1043974;28;20041;-72
2021/09/10 00:56:09;;;;;;;16.63;11.17;;;;;;;16.59;100.00;95849.16;1035860;28;20052;-72
2021/09/10 00:56:39;;;;;;;14.67;11.77;;;;;;;16.53;100.00;95843.13;1036053;28;20014;-73
2021/09/10 00:57:10;;;;;;;17.03;11.67;;;;;;;16.57;100.00;95848.66;1035737;28;20010;-72
2021/09/10 00:57:40;;;;;;;13.37;10.63;;;;;;;16.59;100.00;95849.16;1040226;28;20017;-72
2021/09/10 00:58:11;;;;;;;14.67;11.50;;;;;;;16.56;100.00;95850.56;1043892;28;20474;-72
2021/09/10 00:58:42;;;;;;;15.55;11.50;;;;;;;16.56;100.00;95852.47;1036067;28;20056;-72
2021/09/10 00:59:12;;;;;;;14.77;11.37;;;;;;;16.54;100.00;95852.78;1035844;28;20450;-72
2021/09/10 00:59:42;;;;;;;13.90;11.00;;;;;;;16.56;100.00;95850.56;1032090;28;20026;-72
2021/09/10 01:00:13;;;;;;;14.07;11.60;;;;;;;16.57;100.00;95849.44;1035784;28;20021;-72
2021/09/10 01:00:44;;;;;;;16.43;11.13;;;;;;;16.58;100.00;95851.06;1040133;28;20025;-72
2021/09/10 01:01:14;;;;;;;13.87;10.83;;;;;;;16.60;100.00;95853.44;1035919;28;20441;-72
2021/09/10 01:01:45;;;;;;;13.73;11.10;;;;;;;16.60;100.00;95853.44;1035991;28;20025;-73
2021/09/10 01:02:16;;;;;;;14.32;10.73;;;;;;;16.60;100.00;95854.25;1032162;28;20021;-72
2021/09/10 01:02:47;;;;;;;14.47;10.90;;;;;;;16.62;100.00;95853.91;1031965;28;20375;-72
2021/09/10 01:03:17;;;;;;;15.47;11.37;;;;;;;16.63;100.00;95853.63;1036054;28;20465;-72
2021/09/10 01:03:48;;;;;;;14.03;10.73;;;;;;;16.60;100.00;95848.84;1031987;28;20061;-72
2021/09/10 01:04:19;;;;;;;16.27;10.97;;;;;;;16.64;100.00;95851.72;1028061;28;20077;-72
2021/09/10 01:04:49;;;;;;;13.20;11.13;;;;;;;16.65;100.00;95847.91;1028134;28;20022;-72
2021/09/10 01:05:20;;;;;;;17.10;11.00;;;;;;;16.62;100.00;95849.31;1028133;28;20030;-72
2021/09/10 01:05:50;;;;;;;13.10;10.53;;;;;;;16.63;100.00;95852.81;1032361;28;20101;-72
2021/09/10 01:06:21;;;;;;;14.07;11.33;;;;;;;16.64;100.00;95855.22;1035986;28;20065;-72
2021/09/10 01:06:52;;;;;;;16.43;11.20;;;;;;;16.65;100.00;95850.59;1027813;28;20076;-73
2021/09/10 01:07:25;;;;;;;14.00;10.82;;;;;;;16.63;100.00;95852.81;1031964;28;20080;-74
2021/09/10 01:07:56;;;;;;;12.52;10.70;;;;;;;16.62;100.00;95862.00;1028420;28;20017;-73
2021/09/10 01:08:27;;;;;;;13.80;10.15;;;;;;;16.62;100.00;95853.91;1029087;28;20023;-73
2021/09/10 01:08:57;;;;;;;14.03;11.13;;;;;;;16.60;100.00;95851.53;1035852;28;20018;-72
2021/09/10 01:09:46;;;;;;;12.85;11.05;;;;;;;16.54;100.00;95850.09;1035896;28;20081;-72
2021/09/10 01:10:35;;;;;;;13.05;10.80;;;;;;;16.55;100.00;95848.97;1040113;28;20160;-72
2021/09/10 01:11:18;;;;;;;14.23;11.10;;;;;;;16.57;100.00;95852.16;1039728;28;20033;-72
2021/09/10 01:11:50;;;;;;;14.48;10.80;;;;;;;16.56;100.00;95855.16;1040018;28;20044;-72
2021/09/10 01:12:21;;;;;;;15.88;10.93;;;;;;;16.57;100.00;95849.44;1039809;28;20129;-72
2021/09/10 01:12:51;;;;;;;13.60;11.20;;;;;;;16.54;100.00;95852.78;1042108;28;20025;-72
2021/09/10 01:13:22;;;;;;;14.20;10.40;;;;;;;16.54;100.00;95849.28;1035918;28;20025;-73
2021/09/10 01:13:53;;;;;;;16.30;11.43;;;;;;;16.56;100.00;95847.88;1035956;28;20029;-72
2021/09/10 01:14:24;;;;;;;14.55;10.80;;;;;;;16.56;100.00;95845.16;1027995;28;20460;-73
2021/09/10 01:14:54;;;;;;;13.07;10.60;;;;;;;16.56;100.00;95845.16;1032352;28;20010;-73
2021/09/10 01:15:25;;;;;;;13.60;10.63;;;;;;;16.58;100.00;95844.84;1035929;28;20459;-72
2021/09/10 01:15:55;;;;;;;12.73;10.60;;;;;;;16.61;100.00;95845.03;1027927;28;20010;-72
2021/09/10 01:16:25;;;;;;;13.67;10.40;;;;;;;16.59;100.00;95844.56;1028008;28;20540;-73
2021/09/10 01:16:56;;;;;;;12.87;10.77;;;;;;;16.62;100.00;95849.31;1024078;28;20023;-72
2021/09/10 01:17:26;;;;;;;13.63;11.33;;;;;;;16.62;100.00;95851.22;1023140;28;20437;-72
2021/09/10 01:17:57;;;;;;;13.93;11.07;;;;;;;16.62;100.00;95852.00;1023982;29;20046;-72
2021/09/10 01:18:27;;;;;;;14.37;11.17;;;;;;;16.64;100.00;95849.03;1023987;28;20022;-73
2021/09/10 01:18:58;;;;;;;13.67;10.50;;;;;;;16.63;100.00;95852.81;1032012;28;20022;-72
2021/09/10 01:19:29;;;;;;;12.87;10.97;;;;;;;16.64;100.00;95846.31;1044158;28;20063;-72
2021/09/10 01:20:00;;;;;;;12.70;10.80;;;;;;;16.63;100.00;95845.53;1043967;28;20091;-72
2021/09/10 01:20:30;;;;;;;16.37;11.17;;;;;;;16.63;100.00;95842.84;1044154;28;20095;-72
2021/09/10 01:21:00;;;;;;;13.03;10.47;;;;;;;16.63;100.00;95853.63;1044142;28;20033;-72
2021/09/10 01:21:31;;;;;;;12.87;10.50;;;;;;;16.66;100.00;95856.78;1039970;28;20017;-73
2021/09/10 01:22:03;;;;;;;12.80;10.77;;;;;;;16.64;100.00;95855.22;1032003;28;20081;-73
2021/09/10 01:22:33;;;;;;;14.45;11.38;;;;;;;16.63;100.00;95852.81;1032049;28;20030;-72
2021/09/10 01:23:04;;;;;;;12.93;11.10;;;;;;;16.63;100.00;95853.63;1032449;28;20027;-72
2021/09/10 01:23:34;;;;;;;15.80;10.60;;;;;;;16.62;100.00;95845.81;1036007;28;20026;-72
2021/09/10 01:24:05;;;;;;;15.73;11.17;;;;;;;16.62;100.00;95852.00;1035949;28;20096;-73
2021/09/10 01:24:37;;;;;;;13.50;11.20;;;;;;;16.61;100.00;95850.44;1028049;28;20031;-73
2021/09/10 01:25:11;;;;;;;17.33;11.35;;;;;;;16.60;100.00;95848.84;1031975;28;20054;-73
2021/09/10 01:25:42;;;;;;;14.70;10.73;;;;;;;16.61;100.00;95853.13;1031613;28;20116;-73
2021/09/10 01:26:13;;;;;;;15.57;11.47;;;;;;;16.63;100.00;95850.94;1029619;28;20073;-73
2021/09/10 01:26:43;;;;;;;14.20;10.77;;;;;;;16.63;100.00;95852.81;1024390;28;20193;-72
2021/09/10 01:27:13;;;;;;;15.40;11.27;;;;;;;16.62;100.00;95849.31;1023811;29;20449;-72
2021/09/10 01:27:46;;;;;;;16.00;11.70;;;;;;;16.60;100.00;95843.44;1023964;28;20026;-72
2021/09/10 01:28:16;;;;;;;13.18;10.65;;;;;;;16.57;100.00;95846.75;1028637;28;20014;-72
2021/09/10 01:28:47;;;;;;;15.57;11.57;;;;;;;16.51;100.00;95850.69;1036168;28;20373;-72
2021/09/10 01:29:18;;;;;;;16.05;11.23;;;;;;;16.57;100.00;95851.34;1031753;28;20014;-72
2021/09/10 01:29:48;;;;;;;12.73;11.17;;;;;;;16.54;100.00;95852.00;1023768;29;20015;-72
2021/09/10 01:30:20;;;;;;;13.87;11.13;;;;;;;16.52;100.00;95846.88;1024095;28;20023;-72
2021/09/10 01:30:51;;;;;;;15.05;11.95;;;;;;;16.48;100.00;95843.25;1024515;28;20464;-72
2021/09/10 01:31:21;;;;;;;16.63;12.30;;;;;;;16.52;100.00;95846.09;1036438;28;20029;-72
2021/09/10 01:31:52;;;;;;;15.37;11.63;;;;;;;16.53;100.00;95844.97;1039902;28;20026;-73
2021/09/10 01:32:22;;;;;;;16.67;11.60;;;;;;;16.53;100.00;95851.22;1035673;28;20018;-72
2021/09/10 01:32:53;;;;;;;14.23;11.20;;;;;;;16.55;100.00;95858.97;1028774;28;20011;-72
2021/09/10 01:33:24;;;;;;;16.40;12.27;;;;;;;16.49;100.00;95852.94;1028718;28;20472;-72
2021/09/10 01:33:54;;;;;;;17.38;11.93;;;;;;;16.44;100.00;95855.75;1027966;28;20019;-72
2021/09/10 01:34:25;;;;;;;15.00;11.27;;;;;;;16.43;100.00;95856.03;1032126;28;20022;-72
2021/09/10 01:34:55;;;;;;;15.50;12.67;;;;;;;16.43;100.00;95850.66;1031882;28;20025;-72
2021/09/10 01:35:26;;;;;;;16.83;11.13;;;;;;;16.41;100.00;95853.66;1031916;28;20081;-72
2021/09/10 01:35:56;;;;;;;15.93;11.40;;;;;;;16.37;100.00;95852.69;1035901;28;20030;-72
2021/09/10 01:36:26;;;;;;;15.27;11.70;;;;;;;16.38;100.00;95855.09;1036033;28;20348;-73
2021/09/10 01:36:57;;;;;;;14.23;11.73;;;;;;;16.41;100.00;95858.28;1035831;28;20080;-73
2021/09/10 01:37:27;;;;;;;14.57;11.67;;;;;;;16.37;100.00;95853.47;1040062;28;20035;-73
2021/09/10 01:37:58;;;;;;;17.20;11.83;;;;;;;16.33;100.00;95852.53;1040027;28;20021;-72
2021/09/10 01:38:28;;;;;;;12.63;11.27;;;;;;;16.34;100.00;95859.50;1040047;28;20032;-73
2021/09/10 01:38:59;;;;;;;16.53;12.03;;;;;;;16.34;100.00;95856.03;1038083;28;20040;-72
2021/09/10 01:39:29;;;;;;;14.97;11.27;;;;;;;16.31;100.00;95857.44;1040044;28;20079;-72
2021/09/10 01:40:00;;;;;;;14.23;10.93;;;;;;;16.35;100.00;95857.63;1031931;28;20018;-73
2021/09/10 01:40:30;;;;;;;15.83;12.00;;;;;;;16.34;100.00;95856.81;1035888;28;20037;-72
2021/09/10 01:41:01;;;;;;;15.67;11.40;;;;;;;16.35;100.00;95857.63;1031722;28;20018;-72
2021/09/10 01:41:31;;;;;;;15.20;11.50;;;;;;;16.36;100.00;95860.00;1032035;28;20026;-72
2021/09/10 01:42:02;;;;;;;15.20;12.43;;;;;;;16.37;100.00;95860.78;1039947;28;20032;-72
2021/09/10 01:42:32;;;;;;;14.37;11.67;;;;;;;16.38;100.00;95860.50;1041802;28;20082;-72
2021/09/10 01:43:04;;;;;;;14.93;11.97;;;;;;;16.37;100.00;95858.09;1044074;28;20512;-72
2021/09/10 01:43:35;;;;;;;14.95;11.55;;;;;;;16.34;100.00;95861.41;1035871;28;20091;-72
2021/09/10 01:44:05;;;;;;;15.55;11.95;;;;;;;16.31;100.00;95862.03;1035812;28;20060;-72
2021/09/10 01:44:36;;;;;;;17.17;11.47;;;;;;;16.29;100.00;95859.66;1036281;28;20030;-72
2021/09/10 01:45:08;;;;;;;15.77;12.67;;;;;;;16.21;100.00;95856.91;1036086;28;20017;-72
2021/09/10 01:45:39;;;;;;;15.93;12.52;;;;;;;16.21;100.00;95857.69;1031793;28;20026;-73
2021/09/10 01:46:10;;;;;;;14.80;11.90;;;;;;;16.19;100.00;95861.81;1032258;28;20389;-72
2021/09/10 01:46:40;;;;;;;16.93;12.70;;;;;;;16.21;100.00;95857.69;1036365;28;20034;-72
2021/09/10 01:47:11;;;;;;;15.33;11.73;;;;;;;16.23;100.00;95863.59;1036179;28;20022;-72
2021/09/10 01:47:41;;;;;;;14.90;12.30;;;;;;;16.21;100.00;95867.69;1035576;28;20041;-72
2021/09/10 01:48:12;;;;;;;17.07;12.77;;;;;;;16.24;100.00;95862.47;1035885;28;20036;-72
2021/09/10 01:48:42;;;;;;;13.93;11.07;;;;;;;16.25;100.00;95864.06;1036008;28;20033;-72
2021/09/10 01:49:12;;;;;;;13.37;11.10;;;;;;;16.26;100.00;95857.56;1040032;28;20013;-72
2021/09/10 01:49:43;;;;;;;15.60;11.33;;;;;;;16.28;100.00;95868.84;1039877;28;20029;-72
2021/09/10 01:50:16;;;;;;;13.27;11.67;;;;;;;16.29;100.00;95861.56;1039930;28;20025;-72
2021/09/10 01:50:48;;;;;;;16.90;11.95;;;;;;;16.31;100.00;95860.13;1035781;28;20025;-73
2021/09/10 01:51:27;;;;;;;19.95;11.95;;;;;;;16.31;100.00;95862.03;1032426;28;20056;-72
2021/09/10 01:51:58;;;;;;;15.18;11.63;;;;;;;16.33;100.00;95859.84;1035935;28;20060;-72
2021/09/10 01:52:28;;;;;;;15.30;11.67;;;;;;;16.33;100.00;95860.63;1029010;28;20023;-72
2021/09/10 01:52:58;;;;;;;15.20;12.20;;;;;;;16.35;100.00;95860.31;1029264;28;20377;-73
2021/09/10 01:53:32;;;;;;;16.20;12.07;;;;;;;16.29;100.00;95858.84;1027783;28;20026;-73
2021/09/10 01:54:02;;;;;;;15.02;12.05;;;;;;;16.26;100.00;95862.94;1024607;28;20069;-72
2021/09/10 01:54:33;;;;;;;14.67;11.47;;;;;;;16.27;100.00;95863.75;1027035;28;20030;-72
2021/09/10 01:55:05;;;;;;;14.33;11.37;;;;;;;16.26;100.00;95856.75;1027938;28;20035;-72
2021/09/10 01:55:35;;;;;;;16.45;11.57;;;;;;;16.28;100.00;95858.06;1031560;28;20024;-72
2021/09/10 01:56:06;;;;;;;15.70;11.57;;;;;;;16.28;100.00;95863.44;1027823;28;20045;-72
2021/09/10 01:56:36;;;;;;;16.40;11.73;;;;;;;16.29;100.00;95858.84;1023800;29;20019;-72
2021/09/10 01:57:06;;;;;;;16.80;11.83;;;;;;;16.28;100.00;95857.28;1027046;28;20030;-73
2021/09/10 01:57:37;;;;;;;15.90;12.67;;;;;;;16.25;100.00;95864.06;1031750;28;20022;-72
2021/09/10 01:58:07;;;;;;;15.47;12.40;;;;;;;16.25;100.00;95864.06;1035732;28;20033;-73
2021/09/10 01:58:38;;;;;;;16.23;12.10;;;;;;;16.29;100.00;95866.94;1039876;28;20514;-72
2021/09/10 01:59:08;;;;;;;16.60;12.07;;;;;;;16.29;100.00;95858.84;1043341;28;20409;-72
2021/09/10 01:59:43;;;;;;;14.73;11.80;;;;;;;16.27;100.00;95866.44;1040791;28;20017;-72
2021/09/10 02:00:14;;;;;;;13.70;11.70;;;;;;;16.26;100.00;95864.84;1043440;28;20382;-72
2021/09/10 02:00:45;;;;;;;16.00;11.52;;;;;;;16.26;100.00;95867.56;1039917;28;20190;-72
2021/09/10 02:01:25;;;;;;;15.53;11.90;;;;;;;16.27;100.00;95866.44;1039142;28;20124;-72
2021/09/10 02:01:56;;;;;;;14.55;12.05;;;;;;;16.26;100.00;95870.25;1031726;28;20033;-72
2021/09/10 02:02:26;;;;;;;14.50;11.67;;;;;;;16.23;100.00;95876.28;1031727;28;20061;-72
2021/09/10 02:02:57;;;;;;;15.10;11.83;;;;;;;16.25;100.00;95868.66;1032864;28;20026;-72
2021/09/10 02:03:28;;;;;;;15.03;11.83;;;;;;;16.25;100.00;95871.34;1031637;28;20027;-72
2021/09/10 02:03:59;;;;;;;14.50;11.90;;;;;;;16.23;100.00;95866.28;1031995;28;20023;-72
2021/09/10 02:04:29;;;;;;;15.30;11.93;;;;;;;16.21;100.00;95870.38;1034176;28;20081;-72
2021/09/10 02:04:59;;;;;;;14.70;12.23;;;;;;;16.19;100.00;95867.19;1035711;28;20387;-72
2021/09/10 02:05:30;;;;;;;15.80;11.43;;;;;;;16.17;100.00;95867.50;1036027;28;20032;-73
2021/09/10 02:06:00;;;;;;;15.47;11.77;;;;;;;16.13;100.00;95863.84;1031800;28;20030;-73
2021/09/10 02:06:31;;;;;;;13.10;11.57;;;;;;;16.10;100.00;95867.13;1031807;28;20413;-72
2021/09/10 02:07:01;;;;;;;16.17;12.37;;;;;;;16.10;100.00;95869.84;1027715;28;20099;-72
2021/09/10 02:07:32;;;;;;;16.27;12.63;;;;;;;16.03;100.00;95864.09;1028034;28;20087;-72
2021/09/10 02:08:02;;;;;;;15.63;11.90;;;;;;;16.05;100.00;95868.06;1031809;28;20380;-73
2021/09/10 02:08:33;;;;;;;19.43;13.10;;;;;;;15.99;100.00;95872.00;1035874;28;20025;-72
2021/09/10 02:09:03;;;;;;;13.67;11.63;;;;;;;15.90;100.00;95865.75;1035943;28;20033;-72
2021/09/10 02:09:35;;;;;;;15.90;12.57;;;;;;;15.86;100.00;95870.94;1039913;28;20170;-72
2021/09/10 02:10:10;;;;;;;14.05;12.23;;;;;;;15.86;100.00;95864.75;1036081;28;20433;-72
2021/09/10 02:10:40;;;;;;;15.50;12.07;;;;;;;15.85;100.00;95863.16;1039817;28;20057;-72
2021/09/10 02:11:11;;;;;;;16.47;13.57;;;;;;;15.79;100.00;95865.19;1044024;28;20383;-74
2021/09/10 02:11:41;;;;;;;15.67;12.67;;;;;;;15.78;100.00;95857.41;1036313;28;20029;-71
2021/09/10 02:12:12;;;;;;;15.97;12.47;;;;;;;15.78;100.00;95869.00;1035872;28;20026;-73
2021/09/10 02:12:42;;;;;;;13.73;12.33;;;;;;;15.82;100.00;95866.50;1031760;28;20462;-73
2021/09/10 02:13:15;;;;;;;15.17;12.00;;;;;;;15.82;100.00;95866.50;1032120;28;20031;-73
2021/09/10 02:13:46;;;;;;;14.18;12.65;;;;;;;15.82;100.00;95861.91;1039818;28;20030;-72
2021/09/10 02:14:16;;;;;;;16.07;12.57;;;;;;;15.83;100.00;95863.47;1035772;28;20022;-71
2021/09/10 02:14:47;;;;;;;15.67;12.60;;;;;;;15.85;100.00;95868.56;1031774;28;20022;-71
2021/09/10 02:15:17;;;;;;;16.83;12.40;;;;;;;15.87;100.00;95869.06;1027661;28;20472;-71
2021/09/10 02:15:48;;;;;;;14.67;12.20;;;;;;;15.89;100.00;95866.84;1030018;28;20380;-72
2021/09/10 02:16:18;;;;;;;15.23;11.97;;;;;;;15.89;100.00;95869.53;1031887;28;20030;-72
2021/09/10 02:16:49;;;;;;;16.27;12.70;;;;;;;15.91;100.00;95863.84;1035760;28;20030;-71
2021/09/10 02:17:19;;;;;;;15.57;11.83;;;;;;;15.95;100.00;95868.31;1035845;28;20030;-71
2021/09/10 02:17:49;;;;;;;15.80;11.57;;;;;;;15.95;100.00;95864.81;1039584;28;20536;-71
2021/09/10 02:18:20;;;;;;;16.83;12.10;;;;;;;15.91;100.00;95863.84;1035868;28;20096;-72
2021/09/10 02:18:50;;;;;;;20.60;12.90;;;;;;;15.90;100.00;95867.63;1035845;28;20029;-72
2021/09/10 02:19:21;;;;;;;15.07;12.23;;;;;;;15.90;100.00;95864.94;1035810;28;20077;-71
2021/09/10 02:19:51;;;;;;;16.03;12.50;;;;;;;15.93;100.00;95873.22;1035791;28;20115;-70
2021/09/10 02:20:22;;;;;;;14.37;12.30;;;;;;;15.96;100.00;95867.19;1039903;28;20030;-71